sensor_id;sensor_type;location;lat;lon;timestamp;P1;durP1;ratioP1;P2;durP2;ratioP2
4519;SDS011;2272;49.226;8.108;2024-03-02T00:00:48;2.83;;;2.70;;
4519;SDS011;2272;49.226;8.108;2024-03-02T00:03:15;3.23;;;3.03;;
4519;SDS011;2272;49.226;8.108;2024-03-02T00:05:42;2.80;;;2.70;;
4519;SDS011;2272;49.226;8.108;2024-03-02T00:08:11;3.40;;;3.10;;
4519;SDS011;2272;49.226;8.108;2024-03-02T00:10:40;3.87;;;3.00;;
4519;SDS011;2272;49.226;8.108;2024-03-02T00:13:06;3.57;;;3.27;;
4519;SDS011;2272;49.226;8.108;2024-03-02T00:15:39;3.60;;;3.40;;
4519;SDS011;2272;49.226;8.108;2024-03-02T00:18:08;3.40;;;3.10;;
4519;SDS011;2272;49.226;8.108;2024-03-02T00:20:37;4.30;;;3.20;;
4519;SDS011;2272;49.226;8.108;2024-03-02T00:23:05;3.50;;;3.30;;
4519;SDS011;2272;49.226;8.108;2024-03-02T00:25:37;4.10;;;3.67;;
4519;SDS011;2272;49.226;8.108;2024-03-02T00:28:09;4.50;;;4.10;;
4519;SDS011;2272;49.226;8.108;2024-03-02T00:30:46;4.93;;;4.43;;
4519;SDS011;2272;49.226;8.108;2024-03-02T00:33:19;5.10;;;3.83;;
4519;SDS011;2272;49.226;8.108;2024-03-02T00:35:47;4.60;;;3.70;;
4519;SDS011;2272;49.226;8.108;2024-03-02T00:38:14;4.00;;;3.57;;
4519;SDS011;2272;49.226;8.108;2024-03-02T00:40:42;4.00;;;3.57;;
4519;SDS011;2272;49.226;8.108;2024-03-02T00:43:11;4.63;;;4.23;;
4519;SDS011;2272;49.226;8.108;2024-03-02T00:46:05;4.90;;;4.20;;
4519;SDS011;2272;49.226;8.108;2024-03-02T00:48:32;3.90;;;3.60;;
4519;SDS011;2272;49.226;8.108;2024-03-02T00:51:00;4.50;;;4.10;;
4519;SDS011;2272;49.226;8.108;2024-03-02T00:53:29;4.47;;;4.07;;
4519;SDS011;2272;49.226;8.108;2024-03-02T00:55:57;4.40;;;4.00;;
4519;SDS011;2272;49.226;8.108;2024-03-02T00:58:24;6.10;;;4.57;;
4519;SDS011;2272;49.226;8.108;2024-03-02T01:00:51;5.47;;;4.20;;
4519;SDS011;2272;49.226;8.108;2024-03-02T01:03:19;5.23;;;4.20;;
4519;SDS011;2272;49.226;8.108;2024-03-02T01:05:46;4.87;;;4.37;;
4519;SDS011;2272;49.226;8.108;2024-03-02T01:08:13;5.77;;;4.47;;
4519;SDS011;2272;49.226;8.108;2024-03-02T01:10:40;7.10;;;4.23;;
4519;SDS011;2272;49.226;8.108;2024-03-02T01:13:06;5.97;;;4.57;;
4519;SDS011;2272;49.226;8.108;2024-03-02T01:15:33;4.60;;;4.20;;
4519;SDS011;2272;49.226;8.108;2024-03-02T01:18:00;3.53;;;3.30;;
4519;SDS011;2272;49.226;8.108;2024-03-02T01:20:28;4.63;;;3.83;;
4519;SDS011;2272;49.226;8.108;2024-03-02T01:22:55;3.20;;;3.00;;
4519;SDS011;2272;49.226;8.108;2024-03-02T01:25:22;3.60;;;3.40;;
4519;SDS011;2272;49.226;8.108;2024-03-02T01:27:50;3.33;;;3.03;;
4519;SDS011;2272;49.226;8.108;2024-03-02T01:30:16;3.43;;;3.23;;
4519;SDS011;2272;49.226;8.108;2024-03-02T01:32:43;3.67;;;3.43;;
4519;SDS011;2272;49.226;8.108;2024-03-02T01:35:10;3.63;;;3.37;;
4519;SDS011;2272;49.226;8.108;2024-03-02T01:37:39;4.70;;;4.30;;
4519;SDS011;2272;49.226;8.108;2024-03-02T01:40:09;5.57;;;4.37;;
4519;SDS011;2272;49.226;8.108;2024-03-02T01:42:37;3.87;;;3.47;;
4519;SDS011;2272;49.226;8.108;2024-03-02T01:45:05;5.90;;;4.30;;
4519;SDS011;2272;49.226;8.108;2024-03-02T01:47:32;4.80;;;4.30;;
4519;SDS011;2272;49.226;8.108;2024-03-02T01:49:59;3.70;;;3.40;;
4519;SDS011;2272;49.226;8.108;2024-03-02T01:52:27;7.10;;;3.60;;
4519;SDS011;2272;49.226;8.108;2024-03-02T01:54:55;4.90;;;3.57;;
4519;SDS011;2272;49.226;8.108;2024-03-02T01:57:22;4.20;;;3.90;;
4519;SDS011;2272;49.226;8.108;2024-03-02T01:59:49;4.03;;;3.83;;
4519;SDS011;2272;49.226;8.108;2024-03-02T02:02:16;3.63;;;3.33;;
4519;SDS011;2272;49.226;8.108;2024-03-02T02:04:43;4.57;;;3.80;;
4519;SDS011;2272;49.226;8.108;2024-03-02T02:07:10;4.60;;;4.20;;
4519;SDS011;2272;49.226;8.108;2024-03-02T02:09:39;4.10;;;3.70;;
4519;SDS011;2272;49.226;8.108;2024-03-02T02:12:08;4.03;;;3.63;;
4519;SDS011;2272;49.226;8.108;2024-03-02T02:14:35;4.10;;;3.80;;
4519;SDS011;2272;49.226;8.108;2024-03-02T02:17:02;3.60;;;3.27;;
4519;SDS011;2272;49.226;8.108;2024-03-02T02:19:29;3.27;;;3.07;;
4519;SDS011;2272;49.226;8.108;2024-03-02T02:21:57;5.00;;;3.17;;
4519;SDS011;2272;49.226;8.108;2024-03-02T02:24:24;3.30;;;3.10;;
4519;SDS011;2272;49.226;8.108;2024-03-02T02:26:51;3.17;;;2.97;;
4519;SDS011;2272;49.226;8.108;2024-03-02T02:29:17;3.50;;;3.20;;
4519;SDS011;2272;49.226;8.108;2024-03-02T02:31:44;3.50;;;3.30;;
4519;SDS011;2272;49.226;8.108;2024-03-02T02:34:11;4.00;;;3.63;;
4519;SDS011;2272;49.226;8.108;2024-03-02T02:36:38;3.37;;;3.17;;
4519;SDS011;2272;49.226;8.108;2024-03-02T02:39:07;3.53;;;3.23;;
4519;SDS011;2272;49.226;8.108;2024-03-02T02:41:37;4.27;;;3.97;;
4519;SDS011;2272;49.226;8.108;2024-03-02T02:44:04;3.67;;;3.43;;
4519;SDS011;2272;49.226;8.108;2024-03-02T02:46:31;3.63;;;3.40;;
4519;SDS011;2272;49.226;8.108;2024-03-02T02:48:58;4.10;;;3.90;;
4519;SDS011;2272;49.226;8.108;2024-03-02T02:51:25;3.80;;;3.50;;
4519;SDS011;2272;49.226;8.108;2024-03-02T02:53:51;3.77;;;3.47;;
4519;SDS011;2272;49.226;8.108;2024-03-02T02:56:19;3.83;;;3.53;;
4519;SDS011;2272;49.226;8.108;2024-03-02T02:58:47;5.77;;;4.17;;
4519;SDS011;2272;49.226;8.108;2024-03-02T03:01:15;4.87;;;4.37;;
4519;SDS011;2272;49.226;8.108;2024-03-02T03:03:43;5.43;;;4.40;;
4519;SDS011;2272;49.226;8.108;2024-03-02T03:06:10;4.63;;;4.23;;
4519;SDS011;2272;49.226;8.108;2024-03-02T03:08:37;3.67;;;3.40;;
4519;SDS011;2272;49.226;8.108;2024-03-02T03:11:04;3.77;;;3.57;;
4519;SDS011;2272;49.226;8.108;2024-03-02T03:13:33;3.50;;;3.30;;
4519;SDS011;2272;49.226;8.108;2024-03-02T03:16:00;4.50;;;4.13;;
4519;SDS011;2272;49.226;8.108;2024-03-02T03:18:28;6.17;;;5.60;;
4519;SDS011;2272;49.226;8.108;2024-03-02T03:20:54;4.17;;;3.77;;
4519;SDS011;2272;49.226;8.108;2024-03-02T03:23:21;5.33;;;4.93;;
4519;SDS011;2272;49.226;8.108;2024-03-02T03:25:48;4.00;;;3.80;;
4519;SDS011;2272;49.226;8.108;2024-03-02T03:28:15;4.60;;;4.20;;
4519;SDS011;2272;49.226;8.108;2024-03-02T03:30:43;5.00;;;4.27;;
4519;SDS011;2272;49.226;8.108;2024-03-02T03:33:10;4.00;;;3.60;;
4519;SDS011;2272;49.226;8.108;2024-03-02T03:35:36;4.20;;;3.90;;
4519;SDS011;2272;49.226;8.108;2024-03-02T03:38:03;4.07;;;3.77;;
4519;SDS011;2272;49.226;8.108;2024-03-02T03:40:30;5.30;;;4.80;;
4519;SDS011;2272;49.226;8.108;2024-03-02T03:42:57;5.20;;;4.80;;
4519;SDS011;2272;49.226;8.108;2024-03-02T03:45:24;4.60;;;3.70;;
4519;SDS011;2272;49.226;8.108;2024-03-02T03:47:53;5.33;;;4.63;;
4519;SDS011;2272;49.226;8.108;2024-03-02T03:50:20;4.90;;;4.40;;
4519;SDS011;2272;49.226;8.108;2024-03-02T03:52:46;5.23;;;4.67;;
4519;SDS011;2272;49.226;8.108;2024-03-02T03:55:13;4.83;;;4.43;;
4519;SDS011;2272;49.226;8.108;2024-03-02T03:57:40;5.80;;;4.40;;
4519;SDS011;2272;49.226;8.108;2024-03-02T04:00:07;5.27;;;4.77;;
4519;SDS011;2272;49.226;8.108;2024-03-02T04:02:36;5.33;;;4.83;;
4519;SDS011;2272;49.226;8.108;2024-03-02T04:05:05;5.10;;;4.70;;
4519;SDS011;2272;49.226;8.108;2024-03-02T04:07:34;5.50;;;5.00;;
4519;SDS011;2272;49.226;8.108;2024-03-02T04:10:05;8.67;;;5.00;;
4519;SDS011;2272;49.226;8.108;2024-03-02T04:12:33;5.53;;;5.00;;
4519;SDS011;2272;49.226;8.108;2024-03-02T04:15:00;7.00;;;4.90;;
4519;SDS011;2272;49.226;8.108;2024-03-02T04:17:28;5.77;;;4.63;;
4519;SDS011;2272;49.226;8.108;2024-03-02T04:19:57;5.33;;;4.67;;
4519;SDS011;2272;49.226;8.108;2024-03-02T04:22:26;4.83;;;4.43;;
4519;SDS011;2272;49.226;8.108;2024-03-02T04:24:56;4.97;;;4.53;;
4519;SDS011;2272;49.226;8.108;2024-03-02T04:27:22;6.87;;;6.13;;
4519;SDS011;2272;49.226;8.108;2024-03-02T04:29:49;4.33;;;3.93;;
4519;SDS011;2272;49.226;8.108;2024-03-02T04:32:16;3.80;;;3.60;;
4519;SDS011;2272;49.226;8.108;2024-03-02T04:34:44;7.87;;;5.80;;
4519;SDS011;2272;49.226;8.108;2024-03-02T04:37:11;6.50;;;5.63;;
4519;SDS011;2272;49.226;8.108;2024-03-02T04:39:40;8.10;;;6.07;;
4519;SDS011;2272;49.226;8.108;2024-03-02T04:42:07;8.13;;;5.63;;
4519;SDS011;2272;49.226;8.108;2024-03-02T04:44:34;11.43;;;7.33;;
4519;SDS011;2272;49.226;8.108;2024-03-02T04:47:00;11.13;;;6.93;;
4519;SDS011;2272;49.226;8.108;2024-03-02T04:49:28;5.63;;;5.10;;
4519;SDS011;2272;49.226;8.108;2024-03-02T04:51:55;7.53;;;5.50;;
4519;SDS011;2272;49.226;8.108;2024-03-02T04:54:22;5.80;;;5.30;;
4519;SDS011;2272;49.226;8.108;2024-03-02T04:56:50;6.63;;;6.03;;
4519;SDS011;2272;49.226;8.108;2024-03-02T04:59:17;5.63;;;5.17;;
4519;SDS011;2272;49.226;8.108;2024-03-02T05:01:44;6.70;;;6.03;;
4519;SDS011;2272;49.226;8.108;2024-03-02T05:04:12;6.80;;;6.20;;
4519;SDS011;2272;49.226;8.108;2024-03-02T05:06:39;6.60;;;6.00;;
4519;SDS011;2272;49.226;8.108;2024-03-02T05:09:06;5.70;;;5.20;;
4519;SDS011;2272;49.226;8.108;2024-03-02T05:11:33;5.77;;;5.30;;
4519;SDS011;2272;49.226;8.108;2024-03-02T05:14:25;8.73;;;6.07;;
4519;SDS011;2272;49.226;8.108;2024-03-02T05:16:52;8.07;;;6.70;;
4519;SDS011;2272;49.226;8.108;2024-03-02T05:19:19;7.77;;;6.60;;
4519;SDS011;2272;49.226;8.108;2024-03-02T05:21:45;7.40;;;6.40;;
4519;SDS011;2272;49.226;8.108;2024-03-02T05:24:13;7.77;;;6.70;;
4519;SDS011;2272;49.226;8.108;2024-03-02T05:26:40;7.20;;;6.60;;
4519;SDS011;2272;49.226;8.108;2024-03-02T05:29:07;7.33;;;5.60;;
4519;SDS011;2272;49.226;8.108;2024-03-02T05:31:37;8.10;;;6.63;;
4519;SDS011;2272;49.226;8.108;2024-03-02T05:34:04;6.83;;;6.17;;
4519;SDS011;2272;49.226;8.108;2024-03-02T05:36:31;7.03;;;6.30;;
4519;SDS011;2272;49.226;8.108;2024-03-02T05:38:58;7.00;;;6.40;;
4519;SDS011;2272;49.226;8.108;2024-03-02T05:41:25;8.63;;;6.80;;
4519;SDS011;2272;49.226;8.108;2024-03-02T05:43:51;6.50;;;5.90;;
4519;SDS011;2272;49.226;8.108;2024-03-02T05:46:18;6.40;;;5.73;;
4519;SDS011;2272;49.226;8.108;2024-03-02T05:48:46;11.17;;;6.20;;
4519;SDS011;2272;49.226;8.108;2024-03-02T05:51:18;14.00;;;6.57;;
4519;SDS011;2272;49.226;8.108;2024-03-02T05:53:44;7.80;;;6.17;;
4519;SDS011;2272;49.226;8.108;2024-03-02T05:56:11;7.03;;;6.33;;
4519;SDS011;2272;49.226;8.108;2024-03-02T05:58:38;8.33;;;6.90;;
4519;SDS011;2272;49.226;8.108;2024-03-02T06:01:18;10.50;;;7.33;;
4519;SDS011;2272;49.226;8.108;2024-03-02T06:03:46;9.27;;;7.57;;
4519;SDS011;2272;49.226;8.108;2024-03-02T06:06:14;8.90;;;8.03;;
4519;SDS011;2272;49.226;8.108;2024-03-02T06:08:46;8.27;;;7.43;;
4519;SDS011;2272;49.226;8.108;2024-03-02T06:11:13;8.17;;;7.37;;
4519;SDS011;2272;49.226;8.108;2024-03-02T06:13:44;8.63;;;7.83;;
4519;SDS011;2272;49.226;8.108;2024-03-02T06:16:11;9.03;;;8.03;;
4519;SDS011;2272;49.226;8.108;2024-03-02T06:18:38;8.67;;;7.70;;
4519;SDS011;2272;49.226;8.108;2024-03-02T06:21:06;8.73;;;7.83;;
4519;SDS011;2272;49.226;8.108;2024-03-02T06:23:33;8.47;;;7.67;;
4519;SDS011;2272;49.226;8.108;2024-03-02T06:26:00;10.20;;;7.73;;
4519;SDS011;2272;49.226;8.108;2024-03-02T06:28:27;10.33;;;8.60;;
4519;SDS011;2272;49.226;8.108;2024-03-02T06:30:54;12.90;;;10.13;;
4519;SDS011;2272;49.226;8.108;2024-03-02T06:33:21;17.47;;;13.00;;
4519;SDS011;2272;49.226;8.108;2024-03-02T06:35:48;15.33;;;10.33;;
4519;SDS011;2272;49.226;8.108;2024-03-02T06:38:16;18.07;;;12.50;;
4519;SDS011;2272;49.226;8.108;2024-03-02T06:40:43;13.43;;;10.43;;
4519;SDS011;2272;49.226;8.108;2024-03-02T06:43:10;14.87;;;10.80;;
4519;SDS011;2272;49.226;8.108;2024-03-02T06:45:37;15.50;;;11.37;;
4519;SDS011;2272;49.226;8.108;2024-03-02T06:48:04;16.70;;;11.87;;
4519;SDS011;2272;49.226;8.108;2024-03-02T06:50:31;17.97;;;12.80;;
4519;SDS011;2272;49.226;8.108;2024-03-02T06:52:58;18.87;;;12.90;;
4519;SDS011;2272;49.226;8.108;2024-03-02T06:55:26;21.60;;;12.80;;
4519;SDS011;2272;49.226;8.108;2024-03-02T06:57:52;14.70;;;11.80;;
4519;SDS011;2272;49.226;8.108;2024-03-02T07:00:19;19.03;;;13.80;;
4519;SDS011;2272;49.226;8.108;2024-03-02T07:02:46;14.63;;;12.43;;
4519;SDS011;2272;49.226;8.108;2024-03-02T07:05:14;13.43;;;10.60;;
4519;SDS011;2272;49.226;8.108;2024-03-02T07:07:40;12.13;;;9.67;;
4519;SDS011;2272;49.226;8.108;2024-03-02T07:10:08;11.50;;;10.30;;
4519;SDS011;2272;49.226;8.108;2024-03-02T07:12:37;12.07;;;9.27;;
4519;SDS011;2272;49.226;8.108;2024-03-02T07:15:04;13.20;;;10.93;;
4519;SDS011;2272;49.226;8.108;2024-03-02T07:17:50;12.73;;;10.40;;
4519;SDS011;2272;49.226;8.108;2024-03-02T07:20:16;14.70;;;10.60;;
4519;SDS011;2272;49.226;8.108;2024-03-02T07:22:43;11.20;;;9.50;;
4519;SDS011;2272;49.226;8.108;2024-03-02T07:25:10;14.30;;;10.80;;
4519;SDS011;2272;49.226;8.108;2024-03-02T07:27:40;11.03;;;9.00;;
4519;SDS011;2272;49.226;8.108;2024-03-02T07:30:09;15.10;;;9.00;;
4519;SDS011;2272;49.226;8.108;2024-03-02T07:32:41;13.90;;;9.80;;
4519;SDS011;2272;49.226;8.108;2024-03-02T07:35:10;13.10;;;9.77;;
4519;SDS011;2272;49.226;8.108;2024-03-02T07:37:37;10.20;;;9.17;;
4519;SDS011;2272;49.226;8.108;2024-03-02T07:40:04;12.67;;;8.33;;
4519;SDS011;2272;49.226;8.108;2024-03-02T07:42:36;12.20;;;10.37;;
4519;SDS011;2272;49.226;8.108;2024-03-02T07:45:05;11.30;;;8.93;;
4519;SDS011;2272;49.226;8.108;2024-03-02T07:47:32;19.87;;;13.07;;
4519;SDS011;2272;49.226;8.108;2024-03-02T07:49:59;13.70;;;11.80;;
4519;SDS011;2272;49.226;8.108;2024-03-02T07:52:26;14.60;;;11.60;;
4519;SDS011;2272;49.226;8.108;2024-03-02T07:54:52;17.43;;;10.13;;
4519;SDS011;2272;49.226;8.108;2024-03-02T07:57:20;14.23;;;11.37;;
4519;SDS011;2272;49.226;8.108;2024-03-02T07:59:46;13.90;;;10.10;;
4519;SDS011;2272;49.226;8.108;2024-03-02T08:02:15;16.40;;;10.00;;
4519;SDS011;2272;49.226;8.108;2024-03-02T08:04:42;16.63;;;9.40;;
4519;SDS011;2272;49.226;8.108;2024-03-02T08:07:10;11.30;;;8.33;;
4519;SDS011;2272;49.226;8.108;2024-03-02T08:09:37;10.30;;;9.17;;
4519;SDS011;2272;49.226;8.108;2024-03-02T08:12:04;10.87;;;8.30;;
4519;SDS011;2272;49.226;8.108;2024-03-02T08:14:31;11.00;;;9.40;;
4519;SDS011;2272;49.226;8.108;2024-03-02T08:16:58;10.33;;;7.90;;
4519;SDS011;2272;49.226;8.108;2024-03-02T08:19:27;7.30;;;6.60;;
4519;SDS011;2272;49.226;8.108;2024-03-02T08:21:54;9.87;;;7.90;;
4519;SDS011;2272;49.226;8.108;2024-03-02T08:24:21;12.10;;;9.00;;
4519;SDS011;2272;49.226;8.108;2024-03-02T08:26:48;10.23;;;8.50;;
4519;SDS011;2272;49.226;8.108;2024-03-02T08:29:15;12.73;;;7.57;;
4519;SDS011;2272;49.226;8.108;2024-03-02T08:31:42;9.53;;;8.63;;
4519;SDS011;2272;49.226;8.108;2024-03-02T08:34:08;9.57;;;7.23;;
4519;SDS011;2272;49.226;8.108;2024-03-02T08:36:36;10.03;;;8.20;;
4519;SDS011;2272;49.226;8.108;2024-03-02T08:39:04;10.40;;;7.40;;
4519;SDS011;2272;49.226;8.108;2024-03-02T08:41:40;10.57;;;7.67;;
4519;SDS011;2272;49.226;8.108;2024-03-02T08:44:07;8.70;;;7.73;;
4519;SDS011;2272;49.226;8.108;2024-03-02T08:46:33;10.77;;;8.20;;
4519;SDS011;2272;49.226;8.108;2024-03-02T08:49:00;8.63;;;7.33;;
4519;SDS011;2272;49.226;8.108;2024-03-02T08:51:27;8.57;;;7.67;;
4519;SDS011;2272;49.226;8.108;2024-03-02T08:53:56;7.37;;;6.60;;
4519;SDS011;2272;49.226;8.108;2024-03-02T08:56:22;9.87;;;7.53;;
4519;SDS011;2272;49.226;8.108;2024-03-02T08:58:49;8.50;;;5.97;;
4519;SDS011;2272;49.226;8.108;2024-03-02T09:01:16;6.17;;;5.63;;
4519;SDS011;2272;49.226;8.108;2024-03-02T09:03:44;10.90;;;7.30;;
4519;SDS011;2272;49.226;8.108;2024-03-02T09:06:11;8.60;;;7.03;;
4519;SDS011;2272;49.226;8.108;2024-03-02T09:08:38;9.67;;;7.10;;
4519;SDS011;2272;49.226;8.108;2024-03-02T09:11:07;8.00;;;7.07;;
4519;SDS011;2272;49.226;8.108;2024-03-02T09:13:33;9.67;;;7.63;;
4519;SDS011;2272;49.226;8.108;2024-03-02T09:16:00;9.60;;;8.10;;
4519;SDS011;2272;49.226;8.108;2024-03-02T09:18:27;10.87;;;7.83;;
4519;SDS011;2272;49.226;8.108;2024-03-02T09:20:54;11.20;;;8.37;;
4519;SDS011;2272;49.226;8.108;2024-03-02T09:23:21;7.60;;;6.90;;
4519;SDS011;2272;49.226;8.108;2024-03-02T09:25:47;8.77;;;7.40;;
4519;SDS011;2272;49.226;8.108;2024-03-02T09:28:16;9.20;;;8.30;;
4519;SDS011;2272;49.226;8.108;2024-03-02T09:30:43;8.07;;;7.00;;
4519;SDS011;2272;49.226;8.108;2024-03-02T09:33:10;8.67;;;7.20;;
4519;SDS011;2272;49.226;8.108;2024-03-02T09:35:36;23.73;;;7.50;;
4519;SDS011;2272;49.226;8.108;2024-03-02T09:38:03;8.30;;;7.50;;
4519;SDS011;2272;49.226;8.108;2024-03-02T09:40:30;7.80;;;6.43;;
4519;SDS011;2272;49.226;8.108;2024-03-02T09:42:57;7.20;;;6.57;;
4519;SDS011;2272;49.226;8.108;2024-03-02T09:45:26;9.93;;;5.80;;
4519;SDS011;2272;49.226;8.108;2024-03-02T09:47:53;7.13;;;6.47;;
4519;SDS011;2272;49.226;8.108;2024-03-02T09:50:21;12.20;;;6.87;;
4519;SDS011;2272;49.226;8.108;2024-03-02T09:52:48;8.50;;;6.23;;
4519;SDS011;2272;49.226;8.108;2024-03-02T09:55:15;7.33;;;6.63;;
4519;SDS011;2272;49.226;8.108;2024-03-02T09:57:43;8.33;;;7.20;;
4519;SDS011;2272;49.226;8.108;2024-03-02T10:00:10;7.30;;;6.60;;
4519;SDS011;2272;49.226;8.108;2024-03-02T10:02:41;7.47;;;6.73;;
4519;SDS011;2272;49.226;8.108;2024-03-02T10:05:08;7.63;;;6.93;;
4519;SDS011;2272;49.226;8.108;2024-03-02T10:07:35;7.20;;;6.50;;
4519;SDS011;2272;49.226;8.108;2024-03-02T10:10:12;7.67;;;6.40;;
4519;SDS011;2272;49.226;8.108;2024-03-02T10:12:40;7.93;;;6.57;;
4519;SDS011;2272;49.226;8.108;2024-03-02T10:15:07;6.60;;;6.00;;
4519;SDS011;2272;49.226;8.108;2024-03-02T10:17:34;10.30;;;6.70;;
4519;SDS011;2272;49.226;8.108;2024-03-02T10:22:51;5.17;;;4.67;;
4519;SDS011;2272;49.226;8.108;2024-03-02T10:25:31;6.43;;;5.83;;
4519;SDS011;2272;49.226;8.108;2024-03-02T10:27:58;6.87;;;5.90;;
4519;SDS011;2272;49.226;8.108;2024-03-02T10:30:25;5.30;;;4.80;;
4519;SDS011;2272;49.226;8.108;2024-03-02T10:32:53;5.13;;;4.60;;
4519;SDS011;2272;49.226;8.108;2024-03-02T10:35:20;5.47;;;4.80;;
4519;SDS011;2272;49.226;8.108;2024-03-02T10:37:49;5.87;;;4.97;;
4519;SDS011;2272;49.226;8.108;2024-03-02T10:40:17;4.97;;;4.47;;
4519;SDS011;2272;49.226;8.108;2024-03-02T10:42:44;5.90;;;4.60;;
4519;SDS011;2272;49.226;8.108;2024-03-02T10:45:11;7.87;;;6.00;;
4519;SDS011;2272;49.226;8.108;2024-03-02T10:47:40;6.00;;;5.50;;
4519;SDS011;2272;49.226;8.108;2024-03-02T10:50:08;5.20;;;4.80;;
4519;SDS011;2272;49.226;8.108;2024-03-02T10:52:35;5.80;;;5.30;;
4519;SDS011;2272;49.226;8.108;2024-03-02T10:55:04;5.03;;;4.63;;
4519;SDS011;2272;49.226;8.108;2024-03-02T10:57:32;6.23;;;5.57;;
4519;SDS011;2272;49.226;8.108;2024-03-02T11:00:05;8.10;;;6.07;;
4519;SDS011;2272;49.226;8.108;2024-03-02T11:02:37;5.77;;;5.27;;
4519;SDS011;2272;49.226;8.108;2024-03-02T11:05:06;5.80;;;4.17;;
4519;SDS011;2272;49.226;8.108;2024-03-02T11:07:36;4.57;;;4.20;;
4519;SDS011;2272;49.226;8.108;2024-03-02T11:10:06;5.60;;;5.10;;
4519;SDS011;2272;49.226;8.108;2024-03-02T11:12:35;5.47;;;4.97;;
4519;SDS011;2272;49.226;8.108;2024-03-02T11:15:05;4.43;;;4.03;;
4519;SDS011;2272;49.226;8.108;2024-03-02T11:17:37;6.03;;;5.30;;
4519;SDS011;2272;49.226;8.108;2024-03-02T11:20:05;8.03;;;4.97;;
4519;SDS011;2272;49.226;8.108;2024-03-02T11:22:35;5.43;;;4.93;;
4519;SDS011;2272;49.226;8.108;2024-03-02T11:25:03;9.37;;;5.50;;
4519;SDS011;2272;49.226;8.108;2024-03-02T11:33:22;4.00;;;3.67;;
4519;SDS011;2272;49.226;8.108;2024-03-02T11:35:52;7.90;;;5.97;;
4519;SDS011;2272;49.226;8.108;2024-03-02T11:38:19;4.70;;;4.20;;
4519;SDS011;2272;49.226;8.108;2024-03-02T11:40:45;4.70;;;4.40;;
4519;SDS011;2272;49.226;8.108;2024-03-02T11:43:14;6.10;;;4.13;;
4519;SDS011;2272;49.226;8.108;2024-03-02T11:45:41;4.60;;;4.20;;
4519;SDS011;2272;49.226;8.108;2024-03-02T11:48:11;10.03;;;5.07;;
4519;SDS011;2272;49.226;8.108;2024-03-02T11:50:40;4.80;;;4.10;;
4519;SDS011;2272;49.226;8.108;2024-03-02T11:53:09;3.47;;;3.17;;
4519;SDS011;2272;49.226;8.108;2024-03-02T11:55:38;3.50;;;3.30;;
4519;SDS011;2272;49.226;8.108;2024-03-02T11:58:05;2.93;;;2.83;;
4519;SDS011;2272;49.226;8.108;2024-03-02T12:00:34;3.07;;;2.80;;
4519;SDS011;2272;49.226;8.108;2024-03-02T12:03:01;3.30;;;3.10;;
4519;SDS011;2272;49.226;8.108;2024-03-02T12:05:29;4.00;;;3.70;;
4519;SDS011;2272;49.226;8.108;2024-03-02T12:07:57;2.80;;;2.60;;
4519;SDS011;2272;49.226;8.108;2024-03-02T12:10:24;2.93;;;2.73;;
4519;SDS011;2272;49.226;8.108;2024-03-02T12:12:55;3.67;;;3.33;;
4519;SDS011;2272;49.226;8.108;2024-03-02T12:15:23;3.07;;;2.87;;
4519;SDS011;2272;49.226;8.108;2024-03-02T12:17:54;5.03;;;3.50;;
4519;SDS011;2272;49.226;8.108;2024-03-02T12:20:21;3.30;;;3.10;;
4519;SDS011;2272;49.226;8.108;2024-03-02T12:22:49;7.90;;;2.70;;
4519;SDS011;2272;49.226;8.108;2024-03-02T12:25:17;3.57;;;3.07;;
4519;SDS011;2272;49.226;8.108;2024-03-02T12:27:44;2.07;;;1.97;;
4519;SDS011;2272;49.226;8.108;2024-03-02T12:30:11;2.27;;;2.10;;
4519;SDS011;2272;49.226;8.108;2024-03-02T12:32:39;2.47;;;2.27;;
4519;SDS011;2272;49.226;8.108;2024-03-02T12:35:08;2.60;;;2.40;;
4519;SDS011;2272;49.226;8.108;2024-03-02T12:37:43;2.53;;;2.37;;
4519;SDS011;2272;49.226;8.108;2024-03-02T12:40:10;3.00;;;2.80;;
4519;SDS011;2272;49.226;8.108;2024-03-02T12:42:37;3.47;;;3.17;;
4519;SDS011;2272;49.226;8.108;2024-03-02T12:45:04;3.30;;;3.10;;
4519;SDS011;2272;49.226;8.108;2024-03-02T12:47:32;3.17;;;2.97;;
4519;SDS011;2272;49.226;8.108;2024-03-02T12:49:59;2.70;;;2.60;;
4519;SDS011;2272;49.226;8.108;2024-03-02T12:52:27;2.97;;;2.77;;
4519;SDS011;2272;49.226;8.108;2024-03-02T12:54:54;9.93;;;3.10;;
4519;SDS011;2272;49.226;8.108;2024-03-02T12:57:25;4.13;;;2.70;;
4519;SDS011;2272;49.226;8.108;2024-03-02T12:59:56;2.83;;;2.63;;
4519;SDS011;2272;49.226;8.108;2024-03-02T13:02:26;7.53;;;2.80;;
4519;SDS011;2272;49.226;8.108;2024-03-02T13:04:55;5.17;;;3.27;;
4519;SDS011;2272;49.226;8.108;2024-03-02T13:07:23;3.50;;;3.20;;
4519;SDS011;2272;49.226;8.108;2024-03-02T13:09:52;2.67;;;2.47;;
4519;SDS011;2272;49.226;8.108;2024-03-02T13:12:21;3.27;;;2.97;;
4519;SDS011;2272;49.226;8.108;2024-03-02T13:14:48;7.73;;;3.63;;
4519;SDS011;2272;49.226;8.108;2024-03-02T13:17:17;2.43;;;2.27;;
4519;SDS011;2272;49.226;8.108;2024-03-02T13:19:53;2.73;;;2.50;;
4519;SDS011;2272;49.226;8.108;2024-03-02T13:22:21;1.90;;;1.80;;
4519;SDS011;2272;49.226;8.108;2024-03-02T13:24:48;2.07;;;1.90;;
4519;SDS011;2272;49.226;8.108;2024-03-02T13:27:17;2.00;;;1.90;;
4519;SDS011;2272;49.226;8.108;2024-03-02T13:29:45;2.57;;;2.37;;
4519;SDS011;2272;49.226;8.108;2024-03-02T13:32:13;3.00;;;2.90;;
4519;SDS011;2272;49.226;8.108;2024-03-02T13:34:40;2.03;;;1.93;;
4519;SDS011;2272;49.226;8.108;2024-03-02T13:37:07;3.20;;;3.00;;
4519;SDS011;2272;49.226;8.108;2024-03-02T13:39:34;2.37;;;2.27;;
4519;SDS011;2272;49.226;8.108;2024-03-02T13:42:05;2.93;;;2.20;;
4519;SDS011;2272;49.226;8.108;2024-03-02T13:44:34;2.80;;;2.60;;
4519;SDS011;2272;49.226;8.108;2024-03-02T13:47:02;2.23;;;2.03;;
4519;SDS011;2272;49.226;8.108;2024-03-02T13:49:29;2.20;;;2.10;;
4519;SDS011;2272;49.226;8.108;2024-03-02T13:52:00;2.30;;;2.10;;
4519;SDS011;2272;49.226;8.108;2024-03-02T13:54:36;2.20;;;2.10;;
4519;SDS011;2272;49.226;8.108;2024-03-02T13:57:03;2.60;;;2.40;;
4519;SDS011;2272;49.226;8.108;2024-03-02T13:59:30;3.23;;;2.93;;
4519;SDS011;2272;49.226;8.108;2024-03-02T14:01:58;5.33;;;2.83;;
4519;SDS011;2272;49.226;8.108;2024-03-02T14:04:25;2.40;;;2.20;;
4519;SDS011;2272;49.226;8.108;2024-03-02T14:06:52;2.03;;;1.93;;
4519;SDS011;2272;49.226;8.108;2024-03-02T14:09:19;2.60;;;2.40;;
4519;SDS011;2272;49.226;8.108;2024-03-02T14:11:46;1.70;;;1.60;;
4519;SDS011;2272;49.226;8.108;2024-03-02T14:14:14;3.23;;;2.30;;
4519;SDS011;2272;49.226;8.108;2024-03-02T14:16:41;2.20;;;2.00;;
4519;SDS011;2272;49.226;8.108;2024-03-02T14:19:09;5.10;;;2.70;;
4519;SDS011;2272;49.226;8.108;2024-03-02T14:21:36;3.17;;;1.90;;
4519;SDS011;2272;49.226;8.108;2024-03-02T14:24:03;8.13;;;7.03;;
4519;SDS011;2272;49.226;8.108;2024-03-02T14:26:31;3.33;;;1.50;;
4519;SDS011;2272;49.226;8.108;2024-03-02T14:28:58;1.63;;;1.43;;
4519;SDS011;2272;49.226;8.108;2024-03-02T14:31:26;1.47;;;1.30;;
4519;SDS011;2272;49.226;8.108;2024-03-02T14:33:53;0.80;;;0.80;;
4519;SDS011;2272;49.226;8.108;2024-03-02T14:36:21;0.83;;;0.83;;
4519;SDS011;2272;49.226;8.108;2024-03-02T14:38:48;2.23;;;2.03;;
4519;SDS011;2272;49.226;8.108;2024-03-02T14:41:14;9.50;;;4.67;;
4519;SDS011;2272;49.226;8.108;2024-03-02T14:43:41;7.03;;;5.67;;
4519;SDS011;2272;49.226;8.108;2024-03-02T14:46:08;4.87;;;2.30;;
4519;SDS011;2272;49.226;8.108;2024-03-02T14:48:35;1.63;;;1.53;;
4519;SDS011;2272;49.226;8.108;2024-03-02T14:51:02;1.43;;;1.33;;
4519;SDS011;2272;49.226;8.108;2024-03-02T14:53:30;2.30;;;1.40;;
4519;SDS011;2272;49.226;8.108;2024-03-02T14:55:57;2.50;;;1.30;;
4519;SDS011;2272;49.226;8.108;2024-03-02T14:58:24;1.70;;;1.60;;
4519;SDS011;2272;49.226;8.108;2024-03-02T15:00:51;1.70;;;1.60;;
4519;SDS011;2272;49.226;8.108;2024-03-02T15:03:18;1.90;;;1.80;;
4519;SDS011;2272;49.226;8.108;2024-03-02T15:05:45;1.33;;;1.23;;
4519;SDS011;2272;49.226;8.108;2024-03-02T15:08:13;1.63;;;1.60;;
4519;SDS011;2272;49.226;8.108;2024-03-02T15:10:41;1.43;;;1.33;;
4519;SDS011;2272;49.226;8.108;2024-03-02T15:13:07;1.63;;;1.53;;
4519;SDS011;2272;49.226;8.108;2024-03-02T15:15:34;4.67;;;1.43;;
4519;SDS011;2272;49.226;8.108;2024-03-02T15:18:02;1.30;;;1.20;;
4519;SDS011;2272;49.226;8.108;2024-03-02T15:20:29;3.90;;;1.60;;
4519;SDS011;2272;49.226;8.108;2024-03-02T15:22:55;1.60;;;1.53;;
4519;SDS011;2272;49.226;8.108;2024-03-02T15:25:22;1.73;;;1.63;;